Time;durP1;ratioP1;P1;durP2;ratioP2;P2;SDS_P1;SDS_P2;PMS_P1;PMS_P2;Temp;Humidity;BMP_temperature;BMP_pressure;BME280_temperature;BME280_humidity;BME280_pressure;Samples;Min_cycle;Max_cycle;Signal;HPM_P1;HPM_P2
2022/12/23 00:00:54;;;;;;;57.57;26.70;;;;;;;;;;5091735;28;20179;-85
2022/12/23 00:03:20;;;;;;;60.17;26.93;;;;;;;;;;5108776;28;20176;-80
2022/12/23 00:05:46;;;;;;;52.53;26.17;;;;;;;;;;5081333;28;20167;-80
2022/12/23 00:08:12;;;;;;;55.13;27.17;;;;;;;;;;5060371;28;20175;-80
2022/12/23 00:10:38;;;;;;;60.30;27.47;;;;;;;;;;5108527;28;20229;-80
2022/12/23 00:15:49;;;;;;;51.50;27.20;;;;;;;;;;5096136;28;20249;-80
2022/12/23 00:18:15;;;;;;;61.27;27.80;;;;;;;;;;5061353;28;20191;-82
2022/12/23 00:20:41;;;;;;;66.90;28.33;;;;;;;;;;5091453;28;20257;-83
2022/12/23 00:23:07;;;;;;;58.83;28.10;;;;;;;;;;5091708;28;20183;-83
2022/12/23 00:25:40;;;;;;;55.23;27.97;;;;;;;;;;5074776;28;20183;-83
2022/12/23 00:28:06;;;;;;;58.30;28.87;;;;;;;;;;5092182;28;20183;-82
2022/12/23 00:30:32;;;;;;;58.93;28.57;;;;;;;;;;5108166;28;20190;-82
2022/12/23 00:32:58;;;;;;;54.07;29.50;;;;;;;;;;5087300;28;20182;-82
2022/12/23 00:35:24;;;;;;;57.00;28.87;;;;;;;;;;5095705;28;20318;-80
2022/12/23 00:37:50;;;;;;;61.50;28.97;;;;;;;;;;5093691;28;20179;-81
2022/12/23 00:43:01;;;;;;;63.13;29.93;;;;;;;;;;5095829;28;20253;-80
2022/12/23 00:45:27;;;;;;;67.10;30.37;;;;;;;;;;5095483;28;20178;-81
2022/12/23 00:50:38;;;;;;;73.47;29.87;;;;;;;;;;5077892;28;20310;-83
2022/12/23 00:53:04;;;;;;;67.83;30.97;;;;;;;;;;5070607;28;20180;-86
2022/12/23 00:55:31;;;;;;;83.80;31.07;;;;;;;;;;5079541;28;20266;-85
2022/12/23 00:57:57;;;;;;;69.47;31.13;;;;;;;;;;5088367;28;20178;-83
2022/12/23 01:05:35;;;;;;;72.07;29.70;;;;;;;;;;5090745;28;20183;-83
2022/12/23 01:06:27;;;;;;;;;;;;;;;;;;;;;
2022/12/23 01:08:54;;;;;;;65.20;28.20;;;;;;;;;;5056544;28;20186;-83
2022/12/23 01:11:20;;;;;;;68.20;30.50;;;;;;;;;;5090782;28;20270;-83
2022/12/23 01:13:46;;;;;;;74.47;29.13;;;;;;;;;;5107192;28;20306;-83
2022/12/23 01:16:12;;;;;;;72.57;28.37;;;;;;;;;;5090467;28;20242;-83
2022/12/23 01:18:39;;;;;;;70.23;28.50;;;;;;;;;;5090287;28;20175;-83
2022/12/23 01:21:07;;;;;;;60.47;27.50;;;;;;;;;;5090524;28;20296;-83
2022/12/23 01:23:34;;;;;;;59.57;27.40;;;;;;;;;;5107814;28;20172;-83
2022/12/23 01:26:00;;;;;;;65.50;27.20;;;;;;;;;;5107239;28;20172;-81
2022/12/23 01:28:27;;;;;;;60.87;25.40;;;;;;;;;;5107282;28;20283;-80
2022/12/23 01:30:53;;;;;;;58.50;25.67;;;;;;;;;;5107194;28;20171;-80
2022/12/23 01:33:19;;;;;;;57.97;25.63;;;;;;;;;;5090075;28;20186;-82
2022/12/23 01:35:45;;;;;;;50.60;25.07;;;;;;;;;;5074452;28;20297;-80
2022/12/23 01:38:11;;;;;;;55.33;25.53;;;;;;;;;;5074385;28;20203;-81
2022/12/23 01:40:39;;;;;;;58.90;25.80;;;;;;;;;;5107377;28;20186;-81
2022/12/23 01:43:05;;;;;;;61.33;25.97;;;;;;;;;;5107547;28;20206;-83
2022/12/23 01:45:32;;;;;;;60.63;26.13;;;;;;;;;;5106920;28;20187;-83
2022/12/23 01:48:01;;;;;;;53.43;24.77;;;;;;;;;;5090474;28;20186;-83
2022/12/23 01:50:37;;;;;;;59.17;25.60;;;;;;;;;;5074384;28;20179;-83
2022/12/23 01:53:07;;;;;;;55.60;24.47;;;;;;;;;;5074078;28;20171;-83
2022/12/23 01:55:39;;;;;;;49.87;24.40;;;;;;;;;;5074232;28;20205;-83
2022/12/23 01:58:17;;;;;;;54.70;24.80;;;;;;;;;;5109164;28;20186;-83
2022/12/23 02:03:43;;;;;;;53.40;24.50;;;;;;;;;;5073270;28;20230;-81
2022/12/23 02:11:45;;;;;;;43.33;22.23;;;;;;;;;;5090245;28;20297;-81
2022/12/23 02:17:24;;;;;;;45.97;21.30;;;;;;;;;;5074235;28;20232;-85
2022/12/23 02:20:08;;;;;;;46.90;22.53;;;;;;;;;;5106611;28;20313;-86
2022/12/23 02:22:53;;;;;;;43.27;21.17;;;;;;;;;;5106441;28;20228;-85
2022/12/23 02:25:47;;;;;;;43.97;21.97;;;;;;;;;;5093122;28;20182;-85
2022/12/23 02:28:35;;;;;;;44.60;22.37;;;;;;;;;;5080805;28;20183;-85
2022/12/23 02:31:24;;;;;;;44.00;22.30;;;;;;;;;;5106371;28;20207;-86
2022/12/23 02:33:50;;;;;;;44.00;22.43;;;;;;;;;;5073943;28;20215;-86
2022/12/23 02:36:16;;;;;;;42.93;22.27;;;;;;;;;;5106173;28;20186;-85
2022/12/23 02:38:52;;;;;;;40.67;21.90;;;;;;;;;;5106352;28;20175;-86
2022/12/23 02:41:22;;;;;;;46.73;22.87;;;;;;;;;;5106360;28;20262;-86
2022/12/23 02:43:56;;;;;;;47.47;22.77;;;;;;;;;;5106431;28;20180;-85
2022/12/23 02:46:42;;;;;;;42.53;22.90;;;;;;;;;;5109415;28;20194;-86
2022/12/23 02:49:14;;;;;;;45.13;22.97;;;;;;;;;;5090530;28;20179;-81
2022/12/23 02:51:43;;;;;;;46.57;23.63;;;;;;;;;;5105667;28;20190;-85
2022/12/23 02:54:10;;;;;;;46.60;22.73;;;;;;;;;;5106058;28;20230;-85
2022/12/23 02:56:39;;;;;;;50.73;23.40;;;;;;;;;;5106243;28;20172;-86
2022/12/23 02:59:07;;;;;;;46.33;23.83;;;;;;;;;;5073510;28;20183;-85
2022/12/23 03:01:34;;;;;;;45.17;22.97;;;;;;;;;;5106772;28;20219;-85
2022/12/23 03:04:00;;;;;;;48.40;24.90;;;;;;;;;;5093156;28;20191;-86
2022/12/23 03:06:29;;;;;;;49.93;24.77;;;;;;;;;;5094611;28;20187;-82
2022/12/23 03:08:57;;;;;;;45.73;23.20;;;;;;;;;;5096427;28;20190;-81
2022/12/23 03:11:26;;;;;;;49.77;24.83;;;;;;;;;;5096258;28;20224;-82
2022/12/23 03:13:52;;;;;;;50.57;24.70;;;;;;;;;;5095436;28;20277;-82
2022/12/23 03:16:28;;;;;;;49.57;24.40;;;;;;;;;;5096353;28;20183;-82
2022/12/23 03:18:54;;;;;;;55.50;25.00;;;;;;;;;;5095935;28;20269;-82
2022/12/23 03:21:35;;;;;;;46.87;23.73;;;;;;;;;;5092148;28;20262;-82
2022/12/23 03:24:16;;;;;;;43.00;22.57;;;;;;;;;;5105186;28;20192;-80
2022/12/23 03:27:05;;;;;;;42.60;21.03;;;;;;;;;;5056074;28;20176;-81
2022/12/23 03:29:50;;;;;;;41.07;20.37;;;;;;;;;;5055787;28;20188;-80
2022/12/23 03:32:16;;;;;;;35.70;17.80;;;;;;;;;;5055465;28;20188;-81
2022/12/23 03:34:51;;;;;;;42.40;18.53;;;;;;;;;;5055312;28;20223;-81
2022/12/23 03:37:18;;;;;;;29.67;15.80;;;;;;;;;;5061855;28;20167;-80
2022/12/23 03:40:16;;;;;;;28.13;15.93;;;;;;;;;;5094906;28;20175;-85
2022/12/23 03:42:49;;;;;;;32.30;15.90;;;;;;;;;;5020430;28;20183;-85
2022/12/23 03:45:16;;;;;;;29.83;15.30;;;;;;;;;;5076318;28;20174;-85
2022/12/23 03:47:44;;;;;;;27.80;14.43;;;;;;;;;;5075400;28;20209;-85
2022/12/23 03:50:15;;;;;;;29.73;14.43;;;;;;;;;;5076258;28;20179;-81
2022/12/23 03:52:45;;;;;;;33.20;15.23;;;;;;;;;;5075370;28;20264;-80
2022/12/23 03:55:16;;;;;;;28.57;14.50;;;;;;;;;;5062043;28;20214;-83
2022/12/23 03:57:53;;;;;;;32.03;14.53;;;;;;;;;;5056025;28;20172;-81
2022/12/23 04:00:19;;;;;;;38.93;15.47;;;;;;;;;;5075399;28;20197;-81
2022/12/23 04:02:51;;;;;;;30.13;14.37;;;;;;;;;;5058424;28;20349;-81
2022/12/23 04:05:23;;;;;;;29.83;14.50;;;;;;;;;;5074814;28;20210;-85
2022/12/23 04:07:49;;;;;;;30.30;14.83;;;;;;;;;;5075881;28;20180;-85
2022/12/23 04:10:15;;;;;;;33.40;15.83;;;;;;;;;;5074959;28;20197;-85
2022/12/23 04:12:42;;;;;;;28.50;13.80;;;;;;;;;;5066506;28;20175;-85
2022/12/23 04:15:11;;;;;;;29.17;13.60;;;;;;;;;;5057977;28;20208;-86
2022/12/23 04:17:37;;;;;;;25.37;13.93;;;;;;;;;;5077396;28;20259;-86
2022/12/23 04:20:04;;;;;;;28.40;14.67;;;;;;;;;;5076904;28;20183;-85
2022/12/23 04:22:30;;;;;;;26.07;12.97;;;;;;;;;;5069706;28;20179;-82
2022/12/23 04:24:56;;;;;;;22.97;12.70;;;;;;;;;;5057997;28;20216;-82
2022/12/23 04:27:21;;;;;;;25.33;13.20;;;;;;;;;;5075431;28;20183;-81
2022/12/23 04:29:48;;;;;;;21.73;13.13;;;;;;;;;;5090023;28;20183;-86
2022/12/23 04:32:14;;;;;;;26.53;13.30;;;;;;;;;;5071350;28;20237;-85
2022/12/23 04:34:40;;;;;;;21.27;11.90;;;;;;;;;;5074243;28;20289;-85
2022/12/23 04:37:06;;;;;;;21.30;12.73;;;;;;;;;;5074109;28;20256;-86
2022/12/23 04:39:32;;;;;;;21.70;12.50;;;;;;;;;;5091291;28;20239;-86
2022/12/23 04:41:58;;;;;;;22.70;12.90;;;;;;;;;;5091027;28;20177;-86
2022/12/23 04:44:24;;;;;;;22.73;13.03;;;;;;;;;;5074090;28;20187;-86
2022/12/23 04:46:50;;;;;;;22.77;12.57;;;;;;;;;;5090428;28;20187;-81
2022/12/23 04:49:16;;;;;;;21.07;13.57;;;;;;;;;;5091086;28;20186;-81
2022/12/23 04:51:42;;;;;;;25.33;13.80;;;;;;;;;;5110334;28;20237;-81
2022/12/23 04:54:08;;;;;;;21.47;14.47;;;;;;;;;;5077328;28;20214;-81
2022/12/23 04:56:34;;;;;;;17.93;12.30;;;;;;;;;;5091930;28;20176;-80
2022/12/23 04:59:01;;;;;;;19.70;12.60;;;;;;;;;;5093994;28;20175;-81
2022/12/23 05:01:28;;;;;;;21.30;12.53;;;;;;;;;;5077148;28;20234;-81
2022/12/23 05:03:53;;;;;;;19.77;12.97;;;;;;;;;;5077044;28;20186;-81
2022/12/23 05:06:19;;;;;;;18.87;13.47;;;;;;;;;;5094105;28;20178;-81
2022/12/23 05:08:45;;;;;;;19.27;13.03;;;;;;;;;;5077167;28;20201;-81
2022/12/23 05:11:11;;;;;;;19.90;13.37;;;;;;;;;;5094128;28;20178;-81
2022/12/23 05:13:37;;;;;;;19.27;12.90;;;;;;;;;;5060635;28;20240;-81
2022/12/23 05:16:04;;;;;;;24.07;14.93;;;;;;;;;;5090440;28;20176;-82
2022/12/23 05:18:30;;;;;;;21.47;14.20;;;;;;;;;;5090535;28;20180;-81
2022/12/23 05:20:56;;;;;;;18.13;13.90;;;;;;;;;;5090725;28;20190;-82
2022/12/23 05:23:22;;;;;;;24.07;15.20;;;;;;;;;;5073405;28;20186;-81
2022/12/23 05:25:52;;;;;;;22.43;14.97;;;;;;;;;;5087984;28;20187;-81
2022/12/23 05:28:18;;;;;;;21.73;14.13;;;;;;;;;;5093382;28;20186;-85
2022/12/23 05:30:44;;;;;;;22.80;15.10;;;;;;;;;;5076787;28;20186;-85
2022/12/23 05:33:10;;;;;;;22.40;14.77;;;;;;;;;;5064326;28;20187;-85
2022/12/23 05:35:36;;;;;;;20.57;15.23;;;;;;;;;;5074485;28;20207;-85
2022/12/23 05:38:02;;;;;;;20.43;14.40;;;;;;;;;;5083078;28;20209;-86
2022/12/23 05:40:31;;;;;;;25.00;15.63;;;;;;;;;;5090602;28;20213;-85
2022/12/23 05:42:58;;;;;;;28.20;19.88;;;;;;;;;;5089353;28;20410;-85
2022/12/23 05:45:24;;;;;;;20.97;15.07;;;;;;;;;;5104453;22;20212;-79
2022/12/23 05:47:50;;;;;;;22.67;15.33;;;;;;;;;;5079610;28;20261;-80
2022/12/23 05:50:16;;;;;;;21.27;14.87;;;;;;;;;;5075692;28;20182;-80
2022/12/23 05:52:42;;;;;;;21.03;15.10;;;;;;;;;;5091656;28;20185;-78
2022/12/23 05:55:08;;;;;;;21.57;15.27;;;;;;;;;;5089793;28;20202;-78
2022/12/23 05:57:34;;;;;;;21.87;14.70;;;;;;;;;;5090808;28;20178;-78
2022/12/23 06:00:00;;;;;;;21.57;14.60;;;;;;;;;;5089399;28;20175;-78
2022/12/23 06:02:26;;;;;;;22.03;14.43;;;;;;;;;;5112856;28;20225;-78
2022/12/23 06:04:52;;;;;;;22.10;14.30;;;;;;;;;;5092263;28;20183;-78
2022/12/23 06:07:18;;;;;;;21.73;14.40;;;;;;;;;;5058480;28;20213;-78
2022/12/23 06:09:44;;;;;;;23.83;14.93;;;;;;;;;;5076228;28;20186;-80
2022/12/23 06:12:11;;;;;;;23.97;15.17;;;;;;;;;;5093257;28;20198;-80
2022/12/23 06:14:36;;;;;;;24.83;15.07;;;;;;;;;;5075738;28;20206;-80
2022/12/23 06:17:03;;;;;;;23.73;15.30;;;;;;;;;;5089754;28;20190;-80
2022/12/23 06:19:29;;;;;;;30.07;17.27;;;;;;;;;;5065636;28;20224;-80
2022/12/23 06:21:55;;;;;;;34.80;17.67;;;;;;;;;;5081842;28;20253;-80
2022/12/23 06:24:21;;;;;;;35.73;18.33;;;;;;;;;;5075493;28;20264;-80
2022/12/23 06:26:47;;;;;;;40.90;19.47;;;;;;;;;;5061716;28;20309;-80
2022/12/23 06:29:13;;;;;;;41.97;20.30;;;;;;;;;;5061239;28;20285;-80
2022/12/23 06:31:39;;;;;;;42.87;20.30;;;;;;;;;;5105778;28;20182;-80
2022/12/23 06:34:05;;;;;;;39.63;20.90;;;;;;;;;;5081391;28;20214;-80
2022/12/23 06:36:31;;;;;;;43.47;21.40;;;;;;;;;;5086074;28;20187;-80
2022/12/23 06:38:57;;;;;;;43.87;21.10;;;;;;;;;;5082458;28;20228;-80
2022/12/23 06:41:23;;;;;;;43.20;20.07;;;;;;;;;;5109882;28;20215;-80
2022/12/23 06:43:49;;;;;;;45.70;21.10;;;;;;;;;;5092607;28;20180;-78
2022/12/23 06:46:15;;;;;;;41.87;20.60;;;;;;;;;;5109528;28;20223;-78
2022/12/23 06:48:41;;;;;;;37.50;20.07;;;;;;;;;;5107518;28;20240;-79
2022/12/23 06:51:07;;;;;;;39.57;19.37;;;;;;;;;;5078241;28;20179;-79
2022/12/23 06:53:33;;;;;;;38.63;19.97;;;;;;;;;;5092046;28;20186;-78
2022/12/23 06:55:59;;;;;;;42.77;20.40;;;;;;;;;;5109300;28;20172;-79
2022/12/23 06:58:25;;;;;;;36.80;20.00;;;;;;;;;;5095269;28;20246;-82
2022/12/23 07:00:51;;;;;;;37.63;19.00;;;;;;;;;;5079274;28;20175;-82
2022/12/23 07:03:17;;;;;;;41.07;19.47;;;;;;;;;;5085947;28;20187;-82
2022/12/23 07:05:47;;;;;;;40.63;20.23;;;;;;;;;;5095982;28;20194;-83
2022/12/23 07:08:13;;;;;;;39.73;19.43;;;;;;;;;;5095378;28;20208;-82
2022/12/23 07:10:39;;;;;;;41.83;20.37;;;;;;;;;;5095833;28;20186;-82
2022/12/23 07:13:05;;;;;;;44.10;21.00;;;;;;;;;;5088532;28;20179;-82
2022/12/23 07:15:31;;;;;;;46.53;21.73;;;;;;;;;;5109408;28;20214;-79
2022/12/23 07:17:57;;;;;;;47.23;21.63;;;;;;;;;;5092084;28;20266;-79
2022/12/23 07:20:23;;;;;;;44.83;22.13;;;;;;;;;;5108238;28;20187;-79
2022/12/23 07:22:52;;;;;;;40.00;20.80;;;;;;;;;;5106820;28;20182;-79
2022/12/23 07:25:18;;;;;;;46.50;21.70;;;;;;;;;;5087821;28;20187;-78
2022/12/23 07:27:44;;;;;;;43.03;23.27;;;;;;;;;;5103007;27;20424;-78
2022/12/23 07:30:10;;;;;;;44.97;22.50;;;;;;;;;;5086437;28;20269;-79
2022/12/23 07:32:36;;;;;;;41.13;21.07;;;;;;;;;;5087735;28;20235;-79
2022/12/23 07:35:02;;;;;;;45.37;22.33;;;;;;;;;;5058250;28;20203;-80
2022/12/23 07:37:29;;;;;;;41.10;20.90;;;;;;;;;;5074525;28;20179;-79
2022/12/23 07:39:55;;;;;;;40.40;21.17;;;;;;;;;;5094593;28;20171;-79
2022/12/23 07:42:21;;;;;;;45.60;22.10;;;;;;;;;;5094810;28;20313;-79
2022/12/23 07:44:47;;;;;;;47.97;22.20;;;;;;;;;;5075288;28;20232;-79
2022/12/23 07:47:14;;;;;;;43.93;22.03;;;;;;;;;;5083277;28;20231;-80
2022/12/23 07:49:40;;;;;;;46.90;23.10;;;;;;;;;;5082086;28;20183;-79
2022/12/23 07:52:06;;;;;;;44.57;22.03;;;;;;;;;;5071929;28;20179;-79
2022/12/23 07:54:32;;;;;;;39.63;22.07;;;;;;;;;;5104401;28;20256;-80
2022/12/23 07:56:58;;;;;;;50.77;22.20;;;;;;;;;;5074920;28;20183;-80
2022/12/23 07:59:27;;;;;;;47.90;22.37;;;;;;;;;;5074976;28;20207;-80
2022/12/23 08:01:53;;;;;;;41.47;20.97;;;;;;;;;;5075758;28;20249;-79
2022/12/23 08:04:19;;;;;;;43.83;22.20;;;;;;;;;;5074699;28;20218;-79
2022/12/23 08:06:45;;;;;;;38.70;20.27;;;;;;;;;;5091609;28;20171;-79
2022/12/23 08:09:11;;;;;;;45.30;22.50;;;;;;;;;;5074622;28;20194;-82
2022/12/23 08:11:37;;;;;;;46.47;22.73;;;;;;;;;;5078044;28;20191;-83
2022/12/23 08:14:03;;;;;;;54.57;23.03;;;;;;;;;;5094843;28;20205;-83
2022/12/23 08:16:29;;;;;;;47.17;22.23;;;;;;;;;;5094934;28;20255;-83
2022/12/23 08:18:55;;;;;;;42.00;21.37;;;;;;;;;;5077839;28;20228;-83
2022/12/23 08:21:21;;;;;;;45.13;21.17;;;;;;;;;;5077103;28;20179;-83
2022/12/23 08:23:48;;;;;;;44.80;23.00;;;;;;;;;;5091113;28;20183;-79
2022/12/23 08:26:14;;;;;;;40.97;20.70;;;;;;;;;;5108187;28;20176;-79
2022/12/23 08:28:40;;;;;;;41.20;21.40;;;;;;;;;;5074309;28;20270;-80
2022/12/23 08:31:11;;;;;;;39.00;20.73;;;;;;;;;;5075134;28;20171;-79
2022/12/23 08:33:38;;;;;;;49.03;20.80;;;;;;;;;;5072029;28;20187;-79
2022/12/23 08:36:05;;;;;;;45.63;20.93;;;;;;;;;;5055151;28;20168;-79
2022/12/23 08:38:32;;;;;;;48.57;21.67;;;;;;;;;;5081589;28;20194;-80
2022/12/23 08:40:58;;;;;;;43.33;21.83;;;;;;;;;;5095296;28;20175;-79
2022/12/23 08:43:24;;;;;;;46.07;20.90;;;;;;;;;;5094269;28;20182;-79
2022/12/23 08:45:50;;;;;;;39.90;19.30;;;;;;;;;;5084204;28;20234;-78
2022/12/23 08:48:17;;;;;;;35.90;19.63;;;;;;;;;;5107934;28;20274;-79
2022/12/23 08:50:45;;;;;;;42.37;21.07;;;;;;;;;;5068502;28;20187;-81
2022/12/23 08:53:11;;;;;;;39.30;19.63;;;;;;;;;;5091607;28;20186;-78
2022/12/23 08:55:42;;;;;;;41.87;20.20;;;;;;;;;;5071998;28;20210;-78
2022/12/23 08:58:08;;;;;;;40.10;20.40;;;;;;;;;;5090258;28;20179;-78
2022/12/23 09:00:35;;;;;;;41.80;20.30;;;;;;;;;;5075992;28;20180;-79
2022/12/23 09:03:01;;;;;;;38.80;19.77;;;;;;;;;;5089776;28;20253;-78
2022/12/23 09:05:27;;;;;;;44.17;20.20;;;;;;;;;;5075059;28;20185;-78
2022/12/23 09:07:53;;;;;;;45.80;19.77;;;;;;;;;;5104139;27;20222;-78
2022/12/23 09:10:20;;;;;;;41.77;20.23;;;;;;;;;;5107174;28;20255;-78
2022/12/23 09:12:46;;;;;;;38.60;19.43;;;;;;;;;;5079095;28;20179;-83
2022/12/23 09:15:12;;;;;;;32.67;17.70;;;;;;;;;;5089048;28;20224;-82
2022/12/23 09:17:38;;;;;;;33.60;17.67;;;;;;;;;;5094113;28;20269;-82
2022/12/23 09:20:04;;;;;;;38.07;19.40;;;;;;;;;;5094637;28;20175;-82
2022/12/23 09:22:32;;;;;;;41.23;19.00;;;;;;;;;;5077317;28;20182;-82
2022/12/23 09:24:58;;;;;;;39.87;18.57;;;;;;;;;;5093601;28;20190;-82
2022/12/23 09:27:24;;;;;;;49.03;20.73;;;;;;;;;;5093482;28;20187;-82
2022/12/23 09:29:50;;;;;;;41.73;21.13;;;;;;;;;;5076675;28;20197;-78
2022/12/23 09:32:16;;;;;;;48.47;21.07;;;;;;;;;;5082030;28;20180;-79
2022/12/23 09:34:42;;;;;;;53.27;22.17;;;;;;;;;;5074298;28;20210;-79
2022/12/23 09:37:08;;;;;;;54.07;23.93;;;;;;;;;;5072922;28;20175;-79
2022/12/23 09:39:34;;;;;;;58.53;24.43;;;;;;;;;;5056485;28;20179;-79
2022/12/23 09:42:03;;;;;;;60.23;23.40;;;;;;;;;;5073049;28;20228;-78
2022/12/23 09:44:34;;;;;;;72.23;26.37;;;;;;;;;;5088672;28;20273;-77
2022/12/23 09:47:02;;;;;;;70.90;26.70;;;;;;;;;;5078420;28;20250;-78
2022/12/23 09:49:28;;;;;;;73.37;25.77;;;;;;;;;;5105520;28;20214;-78
2022/12/23 09:51:58;;;;;;;76.87;26.30;;;;;;;;;;5088822;28;20243;-79
2022/12/23 09:54:30;;;;;;;71.60;25.77;;;;;;;;;;5073772;28;20225;-78
2022/12/23 09:56:58;;;;;;;90.10;28.47;;;;;;;;;;5072284;28;20197;-78
2022/12/23 09:59:56;;;;;;;99.93;29.87;;;;;;;;;;5074031;28;20266;-78
2022/12/23 10:02:32;;;;;;;101.97;30.77;;;;;;;;;;5051858;28;20246;-78
2022/12/23 10:05:18;;;;;;;124.60;30.87;;;;;;;;;;5106172;28;20189;-79
2022/12/23 10:08:03;;;;;;;112.53;28.87;;;;;;;;;;5079304;28;20229;-78
2022/12/23 10:10:46;;;;;;;127.43;29.77;;;;;;;;;;5075330;28;20179;-79
2022/12/23 10:13:25;;;;;;;110.67;28.70;;;;;;;;;;5110965;28;20261;-81
2022/12/23 10:15:53;;;;;;;121.27;28.90;;;;;;;;;;5077902;28;20206;-82
2022/12/23 10:18:34;;;;;;;122.30;30.77;;;;;;;;;;5079620;28;20187;-78
2022/12/23 10:21:05;;;;;;;117.90;29.70;;;;;;;;;;5056871;28;20180;-79
2022/12/23 10:23:37;;;;;;;118.60;29.90;;;;;;;;;;5056504;28;20172;-79
2022/12/23 10:26:17;;;;;;;132.13;30.60;;;;;;;;;;5075586;28;20286;-79
2022/12/23 10:28:43;;;;;;;131.40;30.23;;;;;;;;;;5080960;28;20187;-79
2022/12/23 10:31:14;;;;;;;115.77;29.83;;;;;;;;;;5093198;28;20194;-77
2022/12/23 10:33:48;;;;;;;105.07;29.23;;;;;;;;;;5111375;28;20187;-82
2022/12/23 10:36:22;;;;;;;104.30;30.00;;;;;;;;;;5090043;28;20273;-78
2022/12/23 10:38:54;;;;;;;103.93;29.37;;;;;;;;;;5056595;28;20210;-79
2022/12/23 10:41:33;;;;;;;96.67;28.53;;;;;;;;;;5077089;28;20180;-77
2022/12/23 10:44:21;;;;;;;97.53;28.93;;;;;;;;;;5080910;28;20198;-77
2022/12/23 10:46:53;;;;;;;99.87;31.23;;;;;;;;;;5110053;28;20219;-78
2022/12/23 10:49:26;;;;;;;103.33;31.50;;;;;;;;;;5110814;28;20175;-77
2022/12/23 10:51:54;;;;;;;93.27;31.40;;;;;;;;;;5077162;28;20226;-78
2022/12/23 10:54:24;;;;;;;93.43;30.83;;;;;;;;;;5076292;28;20199;-78
2022/12/23 10:56:50;;;;;;;102.03;32.23;;;;;;;;;;5076054;28;20176;-79
2022/12/23 10:59:21;;;;;;;109.40;33.13;;;;;;;;;;5059420;28;20183;-78
2022/12/23 11:01:49;;;;;;;104.03;32.07;;;;;;;;;;5075789;28;20175;-78
2022/12/23 11:04:23;;;;;;;101.17;33.20;;;;;;;;;;5109592;28;20214;-78
2022/12/23 11:06:51;;;;;;;104.10;33.77;;;;;;;;;;5109748;28;20190;-78
2022/12/23 11:09:22;;;;;;;109.77;34.77;;;;;;;;;;5110336;28;20504;-78
2022/12/23 11:11:54;;;;;;;109.53;35.33;;;;;;;;;;5095322;28;20186;-83
2022/12/23 11:14:40;;;;;;;111.80;35.40;;;;;;;;;;5097009;28;20199;-83
2022/12/23 11:17:18;;;;;;;110.90;36.93;;;;;;;;;;5097105;28;20179;-83
2022/12/23 11:19:44;;;;;;;112.57;36.20;;;;;;;;;;5097455;28;20219;-83
2022/12/23 11:22:20;;;;;;;114.97;37.70;;;;;;;;;;5088900;28;20176;-83
2022/12/23 11:24:46;;;;;;;111.83;37.20;;;;;;;;;;5077387;28;20250;-83
2022/12/23 11:27:15;;;;;;;113.87;36.97;;;;;;;;;;5092801;28;20211;-79
2022/12/23 11:29:49;;;;;;;106.37;37.90;;;;;;;;;;5076425;28;20185;-79
2022/12/23 11:32:16;;;;;;;114.40;38.60;;;;;;;;;;5076492;28;20176;-79
2022/12/23 11:34:44;;;;;;;103.20;37.43;;;;;;;;;;5071625;28;20212;-79
2022/12/23 11:37:22;;;;;;;113.47;38.87;;;;;;;;;;5055450;28;20271;-79
2022/12/23 11:39:48;;;;;;;116.17;38.80;;;;;;;;;;5055976;28;20182;-79
2022/12/23 11:42:25;;;;;;;120.93;39.43;;;;;;;;;;5055691;28;20173;-78
2022/12/23 11:44:52;;;;;;;126.33;41.67;;;;;;;;;;5055572;28;20191;-78
2022/12/23 11:47:21;;;;;;;113.67;39.60;;;;;;;;;;5085909;22;20329;-81
2022/12/23 11:49:49;;;;;;;122.87;41.30;;;;;;;;;;5074806;28;20179;-81
2022/12/23 11:52:17;;;;;;;119.17;41.63;;;;;;;;;;5075932;28;20262;-81
2022/12/23 11:54:49;;;;;;;129.47;42.93;;;;;;;;;;5074763;28;20207;-81
2022/12/23 11:57:18;;;;;;;126.57;43.30;;;;;;;;;;5072191;28;20172;-81
2022/12/23 11:59:48;;;;;;;125.20;43.07;;;;;;;;;;5061327;28;20194;-81
2022/12/23 12:02:20;;;;;;;130.57;41.53;;;;;;;;;;5074325;28;20273;-81
2022/12/23 12:04:51;;;;;;;128.97;42.87;;;;;;;;;;5087684;28;20247;-80
2022/12/23 12:07:18;;;;;;;109.10;40.53;;;;;;;;;;5075909;28;20175;-81
2022/12/23 12:09:44;;;;;;;114.20;41.17;;;;;;;;;;5076059;28;20175;-80
2022/12/23 12:12:16;;;;;;;119.53;40.47;;;;;;;;;;5074776;28;20190;-81
2022/12/23 12:14:53;;;;;;;105.80;38.90;;;;;;;;;;5074644;28;20207;-80
2022/12/23 12:17:38;;;;;;;100.57;38.10;;;;;;;;;;5074674;28;20178;-85
2022/12/23 12:20:13;;;;;;;102.90;38.17;;;;;;;;;;5074600;28;20175;-85
2022/12/23 12:22:39;;;;;;;97.20;35.97;;;;;;;;;;5074478;28;20179;-84
2022/12/23 12:25:10;;;;;;;100.37;36.67;;;;;;;;;;5074695;28;20237;-86
2022/12/23 12:27:38;;;;;;;105.60;37.10;;;;;;;;;;5075515;28;20258;-86
2022/12/23 12:30:06;;;;;;;98.20;35.80;;;;;;;;;;5075842;28;20179;-85
2022/12/23 12:32:59;;;;;;;101.00;36.17;;;;;;;;;;5075369;28;20176;-86
2022/12/23 12:35:30;;;;;;;107.95;44.00;;;;;;;;;;5071708;28;20509;-85
2022/12/23 12:37:59;;;;;;;83.67;33.83;;;;;;;;;;5068416;28;20176;-86
2022/12/23 12:40:31;;;;;;;89.13;34.10;;;;;;;;;;5082016;28;20203;-86
2022/12/23 12:43:09;;;;;;;77.13;31.30;;;;;;;;;;5074911;28;20224;-85
2022/12/23 12:45:48;;;;;;;76.37;31.50;;;;;;;;;;5073718;28;20222;-86
2022/12/23 12:48:29;;;;;;;74.93;31.77;;;;;;;;;;5074180;28;20207;-85
2022/12/23 12:51:10;;;;;;;77.13;30.43;;;;;;;;;;5075257;28;20305;-86
2022/12/23 12:53:38;;;;;;;74.33;31.37;;;;;;;;;;5073917;28;20171;-83
2022/12/23 12:56:22;;;;;;;70.00;31.73;;;;;;;;;;5074012;28;20202;-83
2022/12/23 12:58:48;;;;;;;72.27;33.37;;;;;;;;;;5074972;28;20175;-83
2022/12/23 13:01:17;;;;;;;75.87;32.60;;;;;;;;;;5073859;28;20183;-83
2022/12/23 13:03:52;;;;;;;66.77;31.23;;;;;;;;;;5073846;28;20175;-83
2022/12/23 13:06:24;;;;;;;69.67;30.67;;;;;;;;;;5074038;28;20175;-82
2022/12/23 13:09:05;;;;;;;71.70;33.70;;;;;;;;;;5073632;28;20274;-82
2022/12/23 13:11:44;;;;;;;78.87;32.47;;;;;;;;;;5073807;28;20279;-81
2022/12/23 13:14:19;;;;;;;88.83;33.90;;;;;;;;;;5073650;28;20228;-80
2022/12/23 13:17:00;;;;;;;81.50;34.90;;;;;;;;;;5073568;28;20312;-80
2022/12/23 13:19:35;;;;;;;75.90;32.40;;;;;;;;;;5073569;28;20183;-80
2022/12/23 13:22:06;;;;;;;82.07;33.90;;;;;;;;;;5073560;28;20266;-86
2022/12/23 13:24:35;;;;;;;89.10;33.47;;;;;;;;;;5074722;28;20176;-86
2022/12/23 13:27:13;;;;;;;86.47;32.87;;;;;;;;;;5074480;28;20186;-86
2022/12/23 13:29:53;;;;;;;94.13;32.80;;;;;;;;;;5073316;28;20190;-85
2022/12/23 13:32:28;;;;;;;71.50;29.57;;;;;;;;;;5073377;28;20190;-85
2022/12/23 13:34:57;;;;;;;66.40;29.73;;;;;;;;;;5073315;28;20268;-86
2022/12/23 13:37:42;;;;;;;65.27;29.90;;;;;;;;;;5072510;28;20254;-86
2022/12/23 13:40:32;;;;;;;69.97;30.37;;;;;;;;;;5090252;28;20182;-86
2022/12/23 13:43:02;;;;;;;66.90;29.20;;;;;;;;;;5064971;28;20183;-86
2022/12/23 13:45:32;;;;;;;71.40;29.80;;;;;;;;;;5073901;28;20176;-86
2022/12/23 13:48:13;;;;;;;75.27;29.23;;;;;;;;;;5074207;28;20183;-86
2022/12/23 13:50:56;;;;;;;71.77;30.30;;;;;;;;;;5090038;28;20179;-85
2022/12/23 13:53:35;;;;;;;71.10;30.27;;;;;;;;;;5089789;28;20183;-85
2022/12/23 13:56:08;;;;;;;104.27;31.67;;;;;;;;;;5073984;28;20276;-86
2022/12/23 13:58:34;;;;;;;79.17;29.83;;;;;;;;;;5089933;28;20262;-86
2022/12/23 14:01:10;;;;;;;77.10;30.20;;;;;;;;;;5073156;28;20183;-85
2022/12/23 14:03:37;;;;;;;76.37;30.77;;;;;;;;;;5089652;28;20221;-86
2022/12/23 14:06:18;;;;;;;71.23;30.37;;;;;;;;;;5089762;28;20277;-85
2022/12/23 14:08:46;;;;;;;83.10;31.40;;;;;;;;;;5089865;28;20179;-87
2022/12/23 14:11:12;;;;;;;74.17;29.20;;;;;;;;;;5074138;28;20194;-86
2022/12/23 14:13:38;;;;;;;77.33;29.97;;;;;;;;;;5074071;28;20175;-86
2022/12/23 14:16:04;;;;;;;67.07;28.63;;;;;;;;;;5089783;28;20229;-86
2022/12/23 14:18:41;;;;;;;67.70;28.27;;;;;;;;;;5089719;28;20221;-86
2022/12/23 14:21:26;;;;;;;60.77;27.90;;;;;;;;;;5089679;28;20182;-86
2022/12/23 14:24:04;;;;;;;57.10;27.17;;;;;;;;;;5090040;28;20290;-85
2022/12/23 14:26:46;;;;;;;57.97;26.77;;;;;;;;;;5089902;28;20175;-86
2022/12/23 14:29:19;;;;;;;65.73;28.00;;;;;;;;;;5081645;28;20274;-80
2022/12/23 14:31:46;;;;;;;59.77;26.50;;;;;;;;;;5086131;28;20187;-81
2022/12/23 14:34:21;;;;;;;67.10;27.60;;;;;;;;;;5053653;28;20203;-81
2022/12/23 14:37:06;;;;;;;55.00;25.23;;;;;;;;;;5053924;28;20168;-80
2022/12/23 14:39:33;;;;;;;66.03;27.30;;;;;;;;;;5069214;28;20180;-80
2022/12/23 14:41:59;;;;;;;60.37;26.20;;;;;;;;;;5069235;28;20180;-80
2022/12/23 14:44:37;;;;;;;57.63;26.07;;;;;;;;;;5069395;28;20237;-81
2022/12/23 14:47:22;;;;;;;50.67;24.50;;;;;;;;;;5069061;28;20226;-81
2022/12/23 14:49:48;;;;;;;50.07;24.17;;;;;;;;;;5067932;28;20218;-80
2022/12/23 14:52:33;;;;;;;54.83;24.27;;;;;;;;;;5056068;28;20179;-81
2022/12/23 14:55:19;;;;;;;52.27;23.70;;;;;;;;;;5073317;28;20211;-81